createdAt,value
2023-06-27T00:02:07.548Z,20.67
2023-06-27T00:04:35.538Z,20.58
2023-06-27T00:07:03.679Z,20.58
2023-06-27T00:09:31.636Z,20.59
2023-06-27T00:11:59.393Z,20.61
2023-06-27T00:14:27.307Z,20.55
2023-06-27T00:16:55.109Z,20.75
2023-06-27T00:19:24.324Z,20.71
2023-06-27T00:21:52.201Z,20.56
2023-06-27T00:24:20.038Z,20.60
2023-06-27T00:26:47.851Z,20.65
2023-06-27T00:29:15.758Z,20.59
2023-06-27T00:31:43.652Z,20.55
2023-06-27T00:34:11.506Z,20.60
2023-06-27T00:36:41.165Z,20.61
2023-06-27T00:39:11.131Z,20.63
2023-06-27T00:41:38.923Z,20.57
2023-06-27T00:44:09.890Z,20.58
2023-06-27T00:46:42.087Z,20.57
2023-06-27T00:49:12.620Z,20.59
2023-06-27T00:51:44.000Z,20.64
2023-06-27T00:54:12.381Z,20.49
2023-06-27T00:56:40.814Z,20.49
2023-06-27T00:59:08.679Z,20.56
2023-06-27T01:01:37.165Z,20.55
2023-06-27T01:04:06.023Z,20.55
2023-06-27T01:06:50.632Z,20.52
2023-06-27T01:09:46.310Z,20.43
2023-06-27T01:12:49.991Z,20.46
2023-06-27T01:15:19.742Z,20.52
2023-06-27T01:17:48.414Z,20.49
2023-06-27T01:20:16.482Z,20.41
2023-06-27T01:22:52.901Z,20.47
2023-06-27T01:25:20.957Z,20.59
2023-06-27T01:27:48.776Z,20.51
2023-06-27T01:30:19.122Z,20.47
2023-06-27T01:33:06.539Z,20.37
2023-06-27T01:36:05.871Z,20.42
2023-06-27T01:39:00.614Z,20.36
2023-06-27T01:41:32.638Z,20.34
2023-06-27T01:44:21.538Z,20.57
2023-06-27T01:46:53.636Z,20.43
2023-06-27T01:49:23.471Z,20.09
2023-06-27T01:51:55.529Z,20.08
2023-06-27T01:54:23.494Z,20.12
2023-06-27T01:56:51.408Z,19.94
2023-06-27T01:59:19.432Z,19.95
2023-06-27T02:01:47.238Z,19.85
2023-06-27T02:04:15.000Z,19.93
2023-06-27T02:06:42.856Z,19.94
2023-06-27T02:09:13.333Z,19.95
2023-06-27T02:11:41.360Z,19.72
2023-06-27T02:14:09.372Z,19.54
2023-06-27T02:16:37.187Z,19.47
2023-06-27T02:19:05.260Z,19.51
2023-06-27T02:21:33.280Z,19.58
2023-06-27T02:24:01.540Z,19.65
2023-06-27T02:26:29.175Z,19.99
2023-06-27T02:28:57.068Z,19.67
2023-06-27T02:31:25.160Z,19.79
2023-06-27T02:33:52.960Z,19.77
2023-06-27T02:36:22.309Z,19.61
2023-06-27T02:38:50.836Z,19.66
2023-06-27T02:41:18.806Z,19.66
2023-06-27T02:43:46.713Z,19.79
2023-06-27T02:46:14.807Z,19.68
2023-06-27T02:48:42.642Z,19.84
2023-06-27T02:51:10.533Z,19.84
2023-06-27T02:53:38.472Z,19.74
2023-06-27T02:56:09.217Z,19.92
2023-06-27T02:58:39.475Z,20.26
2023-06-27T03:01:08.867Z,20.13
2023-06-27T03:03:41.010Z,19.99
2023-06-27T03:06:29.275Z,19.95
2023-06-27T03:08:56.994Z,20.33
2023-06-27T03:11:24.855Z,20.20
2023-06-27T03:13:52.678Z,20.45
2023-06-27T03:16:22.427Z,20.17
2023-06-27T03:18:50.243Z,20.10
2023-06-27T03:21:19.085Z,20.14
2023-06-27T03:23:46.998Z,20.49
2023-06-27T03:26:17.466Z,20.41
2023-06-27T03:28:45.382Z,20.40
2023-06-27T03:31:13.310Z,20.19
2023-06-27T03:33:42.494Z,20.10
2023-06-27T03:36:11.580Z,20.10
2023-06-27T03:38:41.601Z,20.14
2023-06-27T03:41:09.415Z,19.99
2023-06-27T03:43:38.779Z,19.92
2023-06-27T03:46:08.933Z,19.79
2023-06-27T03:48:36.798Z,19.83
2023-06-27T03:51:04.824Z,20.09
2023-06-27T03:53:35.214Z,20.03
2023-06-27T03:56:04.628Z,19.97
2023-06-27T03:58:34.101Z,20.06
2023-06-27T04:01:01.963Z,20.09
2023-06-27T04:03:29.821Z,20.06
2023-06-27T04:05:57.690Z,20.06
2023-06-27T04:08:27.503Z,20.16
2023-06-27T04:10:55.315Z,20.23
2023-06-27T04:13:23.179Z,20.50
2023-06-27T04:15:50.990Z,20.38
2023-06-27T04:18:18.767Z,20.46
2023-06-27T04:20:46.738Z,20.40
2023-06-27T04:23:15.248Z,20.38
2023-06-27T04:25:54.451Z,20.61
2023-06-27T04:28:23.464Z,20.47
2023-06-27T04:30:51.337Z,20.58
2023-06-27T04:33:19.199Z,20.74
2023-06-27T04:35:48.147Z,20.75
2023-06-27T04:38:16.188Z,20.76
2023-06-27T04:40:44.185Z,20.93
2023-06-27T04:43:12.448Z,20.96
2023-06-27T04:45:40.476Z,21.07
2023-06-27T04:48:08.546Z,21.16
2023-06-27T04:50:37.064Z,21.19
2023-06-27T04:53:05.137Z,21.32
2023-06-27T04:55:34.232Z,21.30
2023-06-27T04:58:02.190Z,21.41
2023-06-27T05:00:32.689Z,21.51
2023-06-27T05:03:00.558Z,21.53
2023-06-27T05:05:33.885Z,21.55
2023-06-27T05:08:06.084Z,21.59
2023-06-27T05:10:34.423Z,21.79
2023-06-27T05:13:02.739Z,21.85
2023-06-27T05:15:30.763Z,21.96
2023-06-27T05:18:15.260Z,21.92
2023-06-27T05:20:48.766Z,22.18
2023-06-27T05:23:16.521Z,22.34
2023-06-27T05:25:44.303Z,22.34
2023-06-27T05:28:12.137Z,21.91
2023-06-27T05:30:40.458Z,21.78
2023-06-27T05:33:08.300Z,22.01
2023-06-27T05:35:36.212Z,22.14
2023-06-27T05:38:04.013Z,22.22
2023-06-27T05:40:32.335Z,22.73
2023-06-27T05:43:00.136Z,22.52
2023-06-27T05:45:27.964Z,22.52
2023-06-27T05:47:55.839Z,22.57
2023-06-27T05:50:23.843Z,22.68
2023-06-27T05:52:51.659Z,22.85
2023-06-27T05:55:19.420Z,22.94
2023-06-27T05:57:47.284Z,23.09
2023-06-27T06:00:16.121Z,23.10
2023-06-27T06:02:46.996Z,23.55
2023-06-27T06:05:15.885Z,23.62
2023-06-27T06:07:45.994Z,23.75
2023-06-27T06:10:14.477Z,23.91
2023-06-27T06:12:44.482Z,23.81
2023-06-27T06:15:12.435Z,24.28
2023-06-27T06:17:40.007Z,24.14
2023-06-27T06:20:11.834Z,24.16
2023-06-27T06:22:40.235Z,24.05
2023-06-27T06:25:08.965Z,24.18
2023-06-27T06:27:36.822Z,24.31
2023-06-27T06:30:04.971Z,24.57
2023-06-27T06:32:34.692Z,24.87
2023-06-27T06:35:04.593Z,25.24
2023-06-27T06:37:32.288Z,25.00
2023-06-27T06:40:00.119Z,25.15
2023-06-27T06:42:27.781Z,25.21
2023-06-27T06:44:55.613Z,25.04
2023-06-27T06:47:23.319Z,25.39
2023-06-27T06:49:51.067Z,25.83
2023-06-27T06:52:18.722Z,25.64
2023-06-27T06:54:47.882Z,25.72
2023-06-27T06:57:15.509Z,26.02
2023-06-27T06:59:43.146Z,25.92
2023-06-27T07:02:10.825Z,26.60
2023-06-27T07:04:38.462Z,26.26
2023-06-27T07:07:06.971Z,26.21
2023-06-27T07:09:34.653Z,26.40
2023-06-27T07:12:02.465Z,26.35
2023-06-27T07:14:30.274Z,26.40
2023-06-27T07:16:57.994Z,26.48
2023-06-27T07:19:25.843Z,26.66
2023-06-27T07:21:53.460Z,26.91
2023-06-27T07:24:21.113Z,27.10
2023-06-27T07:26:48.846Z,27.15
2023-06-27T07:29:18.697Z,27.20
2023-06-27T07:31:46.349Z,28.08
2023-06-27T07:34:14.222Z,28.10
2023-06-27T07:36:42.079Z,28.04
2023-06-27T07:39:10.351Z,27.91
2023-06-27T07:41:38.156Z,27.96
2023-06-27T07:44:06.017Z,27.62
2023-06-27T07:46:33.641Z,27.74
2023-06-27T07:49:02.009Z,27.53
2023-06-27T07:51:32.272Z,27.64
2023-06-27T07:54:01.648Z,27.74
2023-06-27T07:56:29.296Z,28.04
2023-06-27T07:58:57.143Z,28.48
2023-06-27T08:01:24.815Z,28.54
2023-06-27T08:03:52.707Z,28.77
2023-06-27T08:06:20.802Z,29.08
2023-06-27T08:08:48.612Z,29.32
2023-06-27T08:11:16.271Z,29.70
2023-06-27T08:13:44.081Z,29.50
2023-06-27T08:16:12.415Z,29.28
2023-06-27T08:18:40.214Z,29.08
2023-06-27T08:21:07.895Z,29.21
2023-06-27T08:23:35.636Z,29.26
2023-06-27T08:26:03.650Z,29.08
2023-06-27T08:28:31.537Z,29.05
2023-06-27T08:30:59.463Z,29.16
2023-06-27T08:33:27.199Z,29.43
2023-06-27T08:35:55.805Z,29.71
2023-06-27T08:38:24.237Z,29.78
2023-06-27T08:40:56.880Z,29.72
2023-06-27T08:43:25.400Z,30.07
2023-06-27T08:45:55.781Z,29.75
2023-06-27T08:48:24.109Z,29.73
2023-06-27T08:50:57.453Z,30.13
2023-06-27T08:53:29.568Z,30.02
2023-06-27T08:56:12.260Z,29.96
2023-06-27T08:59:01.297Z,30.29
2023-06-27T09:01:32.637Z,30.17
2023-06-27T09:04:04.374Z,30.17
2023-06-27T09:06:32.595Z,30.47
2023-06-27T09:09:01.460Z,30.08
2023-06-27T09:11:29.833Z,30.36
2023-06-27T09:13:57.448Z,30.51
2023-06-27T09:16:25.908Z,30.56
2023-06-27T09:18:57.525Z,30.73
2023-06-27T09:21:25.747Z,30.75
2023-06-27T09:23:56.436Z,30.81
2023-06-27T09:26:28.808Z,30.96
2023-06-27T09:28:56.572Z,30.72
2023-06-27T09:31:24.953Z,30.95
2023-06-27T09:34:02.528Z,31.21
2023-06-27T09:39:14.238Z,31.19
2023-06-27T09:41:48.748Z,31.32
2023-06-27T09:44:26.464Z,31.30
2023-06-27T09:46:55.092Z,31.22
2023-06-27T09:49:26.009Z,31.38
2023-06-27T09:51:55.625Z,31.55
2023-06-27T09:54:24.555Z,31.59
2023-06-27T09:56:54.360Z,31.53
2023-06-27T09:59:25.774Z,31.44
2023-06-27T10:01:55.196Z,31.42
2023-06-27T10:06:57.400Z,31.90
2023-06-27T10:09:25.465Z,31.81
2023-06-27T10:11:53.861Z,31.72
2023-06-27T10:14:23.295Z,31.69
2023-06-27T10:16:53.561Z,31.92
2023-06-27T10:19:22.811Z,32.20
2023-06-27T10:21:50.719Z,32.52
2023-06-27T10:24:20.139Z,32.35
2023-06-27T10:26:59.018Z,32.10
2023-06-27T10:29:46.056Z,32.13
2023-06-27T10:32:18.781Z,32.14
2023-06-27T10:34:47.778Z,32.33
2023-06-27T10:37:28.193Z,31.97
2023-06-27T10:40:01.885Z,31.90
2023-06-27T10:42:32.704Z,31.81
2023-06-27T10:45:11.236Z,32.12
2023-06-27T10:47:44.666Z,32.73
2023-06-27T10:50:21.769Z,32.65
2023-06-27T10:53:10.617Z,32.50
2023-06-27T10:55:40.076Z,32.90
2023-06-27T10:58:15.516Z,32.85
2023-06-27T11:00:47.309Z,32.96
2023-06-27T11:03:22.776Z,32.92
2023-06-27T11:06:01.281Z,32.50
2023-06-27T11:08:31.587Z,32.69
2023-06-27T11:11:05.625Z,32.92
2023-06-27T11:13:42.824Z,32.67
2023-06-27T11:16:13.710Z,32.76
2023-06-27T11:19:04.990Z,32.95
2023-06-27T11:21:34.177Z,33.36
2023-06-27T11:24:03.161Z,33.05
2023-06-27T11:26:31.130Z,33.17
2023-06-27T11:29:05.294Z,33.40
2023-06-27T11:31:33.197Z,33.56
2023-06-27T11:34:01.956Z,33.66
2023-06-27T11:36:29.981Z,33.86
2023-06-27T11:38:57.844Z,33.94
2023-06-27T11:41:26.528Z,34.02
2023-06-27T11:43:56.824Z,33.85
2023-06-27T11:46:24.693Z,33.59
2023-06-27T11:48:53.015Z,33.62
2023-06-27T11:51:21.150Z,33.27
2023-06-27T11:53:51.377Z,33.32
2023-06-27T11:56:22.702Z,33.35
2023-06-27T11:58:53.755Z,33.18
2023-06-27T12:01:24.950Z,33.17
2023-06-27T12:03:54.452Z,33.30
2023-06-27T12:06:31.642Z,33.54
2023-06-27T12:08:59.981Z,33.72
2023-06-27T12:11:36.172Z,33.56
2023-06-27T12:14:09.715Z,33.34
2023-06-27T12:16:40.799Z,33.35
2023-06-27T12:19:13.007Z,33.76
2023-06-27T12:21:40.980Z,33.66
2023-06-27T12:24:09.004Z,33.80
2023-06-27T12:26:36.809Z,33.38
2023-06-27T12:29:07.335Z,33.74
2023-06-27T12:31:37.655Z,34.04
2023-06-27T12:34:08.913Z,33.97
2023-06-27T12:36:40.147Z,34.11
2023-06-27T12:39:08.839Z,34.53
2023-06-27T12:41:36.981Z,34.32
2023-06-27T12:44:04.978Z,34.20
2023-06-27T12:46:35.923Z,34.04
2023-06-27T12:49:04.162Z,34.40
2023-06-27T12:51:32.040Z,34.60
2023-06-27T12:53:59.812Z,34.87
2023-06-27T12:56:27.820Z,34.84
2023-06-27T12:58:56.966Z,34.68
2023-06-27T13:01:25.905Z,34.78
2023-06-27T13:03:54.025Z,34.74
2023-06-27T13:06:23.235Z,34.77
2023-06-27T13:08:53.040Z,34.69
2023-06-27T13:11:21.878Z,34.41
2023-06-27T13:13:51.938Z,34.66
2023-06-27T13:16:22.452Z,34.86
2023-06-27T13:18:54.375Z,35.00
2023-06-27T13:21:23.207Z,35.11
2023-06-27T13:23:51.228Z,35.15
2023-06-27T13:26:18.840Z,35.19
2023-06-27T13:28:46.548Z,34.65
2023-06-27T13:31:15.238Z,35.07
2023-06-27T13:33:43.090Z,34.90
2023-06-27T13:36:12.350Z,34.94
2023-06-27T13:38:41.574Z,34.84
2023-06-27T13:41:09.544Z,34.92
2023-06-27T13:43:37.277Z,35.10
2023-06-27T13:46:05.181Z,34.90
2023-06-27T13:48:34.365Z,35.08
2023-06-27T13:51:02.446Z,35.16
2023-06-27T13:53:30.488Z,35.23
2023-06-27T13:55:59.676Z,35.48
2023-06-27T13:58:28.783Z,35.67
2023-06-27T14:00:58.298Z,35.64
2023-06-27T14:03:27.550Z,35.65
2023-06-27T14:05:56.076Z,35.54
2023-06-27T14:08:23.888Z,35.44
2023-06-27T14:10:53.158Z,35.27
2023-06-27T14:13:21.017Z,35.52
2023-06-27T14:15:49.018Z,35.41
2023-06-27T14:18:19.240Z,35.40
2023-06-27T14:20:47.046Z,35.51
2023-06-27T14:23:15.026Z,35.12
2023-06-27T14:25:42.941Z,34.96
2023-06-27T14:28:10.848Z,35.34
2023-06-27T14:30:39.110Z,35.65
2023-06-27T14:33:08.165Z,35.64
2023-06-27T14:35:36.508Z,35.17
2023-06-27T14:38:04.370Z,34.88
2023-06-27T14:40:32.069Z,34.55
2023-06-27T14:43:02.956Z,34.66
2023-06-27T14:45:30.769Z,35.14
2023-06-27T14:47:58.970Z,34.94
2023-06-27T14:50:27.106Z,34.80
2023-06-27T14:52:54.859Z,34.79
2023-06-27T14:55:22.847Z,34.73
2023-06-27T14:57:50.645Z,34.59
2023-06-27T15:00:20.879Z,34.95
2023-06-27T15:02:49.503Z,34.98
2023-06-27T15:05:20.070Z,34.95
2023-06-27T15:07:48.349Z,34.95
2023-06-27T15:10:16.416Z,34.90
2023-06-27T15:12:44.584Z,34.78
2023-06-27T15:15:12.340Z,34.68
2023-06-27T15:17:40.153Z,34.36
2023-06-27T15:20:08.993Z,34.15
2023-06-27T15:22:36.962Z,34.04
2023-06-27T15:25:05.296Z,33.97
2023-06-27T15:27:34.554Z,33.85
2023-06-27T15:30:02.457Z,33.73
2023-06-27T15:32:30.389Z,33.55
2023-06-27T15:34:59.258Z,33.62
2023-06-27T15:37:27.228Z,33.44
2023-06-27T15:39:55.279Z,33.26
2023-06-27T15:42:23.418Z,33.40
2023-06-27T15:44:51.373Z,33.40
2023-06-27T15:47:21.306Z,33.33
2023-06-27T15:49:51.913Z,33.28
2023-06-27T15:52:19.739Z,33.28
2023-06-27T15:54:47.602Z,33.11
2023-06-27T15:57:15.315Z,32.85
2023-06-27T15:59:43.120Z,32.64
2023-06-27T16:02:10.883Z,32.58
2023-06-27T16:04:39.463Z,32.41
2023-06-27T16:07:07.480Z,32.39
2023-06-27T16:09:35.955Z,32.36
2023-06-27T16:12:05.160Z,32.22
2023-06-27T16:14:32.867Z,32.28
2023-06-27T16:17:00.700Z,32.19
2023-06-27T16:19:34.020Z,32.04
2023-06-27T16:22:03.437Z,32.05
2023-06-27T16:24:31.233Z,32.07
2023-06-27T16:26:59.171Z,31.89
2023-06-27T16:29:26.762Z,31.79
2023-06-27T16:31:54.723Z,31.67
2023-06-27T16:34:22.609Z,31.50
2023-06-27T16:36:50.499Z,31.43
2023-06-27T16:39:18.469Z,31.24
2023-06-27T16:41:46.333Z,31.17
2023-06-27T16:44:14.102Z,31.18
2023-06-27T16:46:41.965Z,31.07
2023-06-27T16:49:09.626Z,31.03
2023-06-27T16:51:37.239Z,30.88
2023-06-27T16:54:05.017Z,30.78
2023-06-27T16:56:32.520Z,30.67
2023-06-27T16:59:00.148Z,30.68
2023-06-27T17:01:30.545Z,30.76
2023-06-27T17:03:58.137Z,30.72
2023-06-27T17:06:25.789Z,30.57
2023-06-27T17:08:53.423Z,30.38
2023-06-27T17:11:21.175Z,30.31
2023-06-27T17:13:49.518Z,30.35
2023-06-27T17:16:17.337Z,30.32
2023-06-27T17:18:45.117Z,30.29
2023-06-27T17:21:12.741Z,30.19
2023-06-27T17:23:40.348Z,30.07
2023-06-27T17:26:07.908Z,29.92
2023-06-27T17:28:35.506Z,29.88
2023-06-27T17:31:03.233Z,29.79
2023-06-27T17:33:32.777Z,29.78
2023-06-27T17:36:00.679Z,29.60
2023-06-27T17:38:28.689Z,29.54
2023-06-27T17:40:58.273Z,29.49
2023-06-27T17:43:28.685Z,29.39
2023-06-27T17:45:58.967Z,29.22
2023-06-27T17:48:26.809Z,29.18
2023-06-27T17:50:54.535Z,29.14
2023-06-27T17:53:22.347Z,28.97
2023-06-27T17:55:50.037Z,28.81
2023-06-27T17:58:17.801Z,28.76
2023-06-27T18:00:46.102Z,28.70
2023-06-27T18:03:15.533Z,28.62
2023-06-27T18:05:43.446Z,28.55
2023-06-27T18:08:18.893Z,28.49
2023-06-27T18:10:46.610Z,28.40
2023-06-27T18:13:14.352Z,28.33
2023-06-27T18:15:42.388Z,28.26
2023-06-27T18:18:13.357Z,28.21
2023-06-27T18:20:51.411Z,28.07
2023-06-27T18:23:19.027Z,27.98
2023-06-27T18:25:47.463Z,27.84
2023-06-27T18:28:15.202Z,27.66
2023-06-27T18:30:43.096Z,27.63
2023-06-27T18:33:12.158Z,27.64
2023-06-27T18:35:39.931Z,27.53
2023-06-27T18:38:07.548Z,27.48
2023-06-27T18:40:35.361Z,27.50
2023-06-27T18:43:02.960Z,27.42
2023-06-27T18:45:30.720Z,27.41
2023-06-27T18:47:59.124Z,27.39
2023-06-27T18:50:29.159Z,27.35
2023-06-27T18:52:57.034Z,27.26
2023-06-27T18:55:25.971Z,27.22
2023-06-27T18:57:54.690Z,27.23
2023-06-27T19:00:22.736Z,27.15
2023-06-27T19:02:51.036Z,27.05
2023-06-27T19:05:19.465Z,27.14
2023-06-27T19:07:47.230Z,27.01
2023-06-27T19:10:15.619Z,27.00
2023-06-27T19:12:43.177Z,26.97
2023-06-27T19:15:11.245Z,26.92
2023-06-27T19:17:39.894Z,26.79
2023-06-27T19:20:09.277Z,26.74
2023-06-27T19:22:38.323Z,26.70
2023-06-27T19:25:06.729Z,26.54
2023-06-27T19:27:36.881Z,26.41
2023-06-27T19:30:05.020Z,26.95
2023-06-27T19:32:35.092Z,26.69
2023-06-27T19:35:06.933Z,26.53
2023-06-27T19:37:35.442Z,26.22
2023-06-27T19:40:04.032Z,26.16
2023-06-27T19:42:32.136Z,26.21
2023-06-27T19:45:00.483Z,26.11
2023-06-27T19:47:29.625Z,26.13
2023-06-27T19:49:57.467Z,26.21
2023-06-27T19:52:25.102Z,26.26
2023-06-27T19:54:54.695Z,26.26
2023-06-27T19:57:24.087Z,26.16
2023-06-27T19:59:51.720Z,26.08
2023-06-27T20:02:19.422Z,26.16
2023-06-27T20:04:47.154Z,26.08
2023-06-27T20:07:14.902Z,26.08
2023-06-27T20:09:44.767Z,26.04
2023-06-27T20:12:13.983Z,26.05
2023-06-27T20:14:41.654Z,25.98
2023-06-27T20:17:12.887Z,25.68
2023-06-27T20:19:40.905Z,25.68
2023-06-27T20:22:10.101Z,25.76
2023-06-27T20:24:41.366Z,25.76
2023-06-27T20:27:09.874Z,25.86
2023-06-27T20:29:37.685Z,25.92
2023-06-27T20:32:06.152Z,25.67
2023-06-27T20:34:34.018Z,25.51
2023-06-27T20:37:02.244Z,25.75
2023-06-27T20:39:32.061Z,26.07
2023-06-27T20:42:03.322Z,25.86
2023-06-27T20:44:31.581Z,25.72
2023-06-27T20:46:59.441Z,25.68
2023-06-27T20:49:27.145Z,25.48
2023-06-27T20:51:54.853Z,25.34
2023-06-27T20:54:22.524Z,25.40
2023-06-27T20:56:51.077Z,25.39
2023-06-27T20:59:19.643Z,25.11
2023-06-27T21:01:48.648Z,25.02
2023-06-27T21:04:17.023Z,25.03
2023-06-27T21:06:44.969Z,25.13
2023-06-27T21:09:14.427Z,25.20
2023-06-27T21:11:42.179Z,25.01
2023-06-27T21:14:10.721Z,25.08
2023-06-27T21:16:38.975Z,25.11
2023-06-27T21:19:06.685Z,25.22
2023-06-27T21:21:36.447Z,25.16
2023-06-27T21:24:04.328Z,25.17
2023-06-27T21:26:32.026Z,25.00
2023-06-27T21:28:59.712Z,24.89
2023-06-27T21:31:27.600Z,24.89
2023-06-27T21:33:55.299Z,24.85
2023-06-27T21:36:23.232Z,24.96
2023-06-27T21:38:54.831Z,25.00
2023-06-27T21:41:22.698Z,24.92
2023-06-27T21:43:50.568Z,24.88
2023-06-27T21:46:18.374Z,24.99
2023-06-27T21:48:46.248Z,25.13
2023-06-27T21:51:14.824Z,25.15
2023-06-27T21:53:42.587Z,25.23
2023-06-27T21:56:10.449Z,25.13
2023-06-27T21:58:38.213Z,25.14
2023-06-27T22:01:06.285Z,24.93
2023-06-27T22:03:40.060Z,24.89
2023-06-27T22:06:07.993Z,24.72
2023-06-27T22:08:35.916Z,24.70
2023-06-27T22:11:03.797Z,24.63
2023-06-27T22:13:34.420Z,24.49
2023-06-27T22:16:02.372Z,24.45
2023-06-27T22:18:30.285Z,24.47
2023-06-27T22:20:58.462Z,24.53
2023-06-27T22:23:26.275Z,24.61
2023-06-27T22:25:54.258Z,24.57
2023-06-27T22:28:22.001Z,24.58
2023-06-27T22:30:49.877Z,24.46
2023-06-27T22:33:17.672Z,24.40
2023-06-27T22:35:45.546Z,24.42
2023-06-27T22:38:13.255Z,24.44
2023-06-27T22:40:41.500Z,24.45
2023-06-27T22:43:09.387Z,24.37
2023-06-27T22:45:39.310Z,24.30
2023-06-27T22:48:07.691Z,24.15
2023-06-27T22:50:35.395Z,24.08
2023-06-27T22:53:03.311Z,24.14
2023-06-27T22:55:31.630Z,24.22
2023-06-27T22:57:59.341Z,24.42
2023-06-27T23:00:27.156Z,24.77
2023-06-27T23:02:55.053Z,24.51
2023-06-27T23:05:22.841Z,24.25
2023-06-27T23:07:50.551Z,24.10
2023-06-27T23:10:18.249Z,24.09
2023-06-27T23:12:46.078Z,24.33
2023-06-27T23:15:13.986Z,24.17
2023-06-27T23:17:41.671Z,24.02
2023-06-27T23:20:11.433Z,23.76
2023-06-27T23:22:39.950Z,23.52
2023-06-27T23:25:10.424Z,23.70
2023-06-27T23:27:41.924Z,23.55
2023-06-27T23:30:10.433Z,23.38
2023-06-27T23:32:40.934Z,24.00
2023-06-27T23:35:09.030Z,23.80
2023-06-27T23:37:37.352Z,23.36
2023-06-27T23:40:06.936Z,23.32
2023-06-27T23:42:35.033Z,23.44
2023-06-27T23:45:02.892Z,23.10
2023-06-27T23:47:30.781Z,23.03
2023-06-27T23:49:58.555Z,22.95
2023-06-27T23:52:26.736Z,23.03
2023-06-27T23:54:54.600Z,23.24
2023-06-27T23:57:22.380Z,22.87
2023-06-27T23:59:50.304Z,22.58
